Time;durP1;ratioP1;P1;durP2;ratioP2;P2;SDS_P1;SDS_P2;PMS_P1;PMS_P2;Temp;Humidity;BMP_temperature;BMP_pressure;BME280_temperature;BME280_humidity;BME280_pressure;Samples;Min_cycle;Max_cycle;Signal;HPM_P1;HPM_P2
2022/05/15 00:02:39;;;;;;;2.57;2.03;;;;;;;;;;5063811;28;20432;-76
2022/05/15 00:05:06;;;;;;;2.27;2.13;;;;;;;;;;5068382;28;20506;-74
2022/05/15 00:07:32;;;;;;;2.67;1.63;;;;;;;;;;5060954;28;20576;-74
2022/05/15 00:09:58;;;;;;;2.47;2.37;;;;;;;;;;5056312;28;20526;-75
2022/05/15 00:12:24;;;;;;;2.73;2.30;;;;;;;;;;5068293;28;20496;-74
2022/05/15 00:14:49;;;;;;;2.53;2.10;;;;;;;;;;5063910;28;20448;-73
2022/05/15 00:17:16;;;;;;;2.13;1.87;;;;;;;;;;5065821;28;20437;-74
2022/05/15 00:19:42;;;;;;;4.93;2.10;;;;;;;;;;5060642;28;20425;-72
2022/05/15 00:22:08;;;;;;;2.07;1.97;;;;;;;;;;5063393;28;20517;-73
2022/05/15 00:24:35;;;;;;;1.77;1.67;;;;;;;;;;5064055;28;20434;-73
2022/05/15 00:27:01;;;;;;;2.23;2.13;;;;;;;;;;5065190;28;20816;-74
2022/05/15 00:29:27;;;;;;;2.27;1.80;;;;;;;;;;5065452;28;20429;-73
2022/05/15 00:31:53;;;;;;;1.60;1.50;;;;;;;;;;5068476;28;20501;-75
2022/05/15 00:34:19;;;;;;;3.70;1.97;;;;;;;;;;5071104;28;20998;-75
2022/05/15 00:36:44;;;;;;;3.20;1.87;;;;;;;;;;5071890;28;20798;-73
2022/05/15 00:39:11;;;;;;;2.40;2.00;;;;;;;;;;5070090;28;20909;-73
2022/05/15 00:41:38;;;;;;;4.60;1.80;;;;;;;;;;5065765;28;20936;-75
2022/05/15 00:44:04;;;;;;;2.13;2.13;;;;;;;;;;5069413;28;20475;-73
2022/05/15 00:46:34;;;;;;;2.10;2.00;;;;;;;;;;5070684;28;20425;-74
2022/05/15 00:49:03;;;;;;;2.03;1.80;;;;;;;;;;5071105;28;20473;-74
2022/05/15 00:51:32;;;;;;;3.13;1.97;;;;;;;;;;5069409;28;20506;-75
2022/05/15 00:54:01;;;;;;;1.40;1.40;;;;;;;;;;5069936;28;20493;-73
2022/05/15 00:56:28;;;;;;;2.83;1.87;;;;;;;;;;5069203;28;20475;-75
2022/05/15 00:58:57;;;;;;;13.40;2.23;;;;;;;;;;5070154;28;20909;-74
2022/05/15 01:01:23;;;;;;;6.13;2.03;;;;;;;;;;5071127;28;20444;-73
2022/05/15 01:03:49;;;;;;;3.40;1.90;;;;;;;;;;5067262;28;20925;-73
2022/05/15 01:06:15;;;;;;;3.43;2.60;;;;;;;;;;5064815;28;20495;-73
2022/05/15 01:08:41;;;;;;;1.90;1.80;;;;;;;;;;5066554;28;20951;-73
2022/05/15 01:11:10;;;;;;;1.97;1.87;;;;;;;;;;5069492;28;20437;-73
2022/05/15 01:13:38;;;;;;;12.27;2.57;;;;;;;;;;5069255;28;20449;-74
2022/05/15 01:16:05;;;;;;;1.33;1.33;;;;;;;;;;5069426;28;20437;-72
2022/05/15 01:18:35;;;;;;;1.70;1.43;;;;;;;;;;5067712;28;20812;-75
2022/05/15 01:21:02;;;;;;;2.67;1.93;;;;;;;;;;5069627;28;20421;-72
2022/05/15 01:23:30;;;;;;;1.83;1.83;;;;;;;;;;5069408;28;20441;-73
2022/05/15 01:26:00;;;;;;;4.50;2.53;;;;;;;;;;5065308;28;20835;-73
2022/05/15 01:28:27;;;;;;;1.83;1.70;;;;;;;;;;5070399;28;20445;-74
2022/05/15 01:30:54;;;;;;;2.93;2.00;;;;;;;;;;5066827;28;20927;-73
2022/05/15 01:33:20;;;;;;;2.30;1.87;;;;;;;;;;5071216;28;20535;-75
2022/05/15 01:35:46;;;;;;;1.70;1.60;;;;;;;;;;5069411;28;20943;-72
2022/05/15 01:38:12;;;;;;;1.77;1.60;;;;;;;;;;5071585;28;20467;-74
2022/05/15 01:40:39;;;;;;;2.10;1.90;;;;;;;;;;5070828;28;20432;-73
2022/05/15 01:43:06;;;;;;;1.83;1.80;;;;;;;;;;5068502;28;20520;-75
2022/05/15 01:45:32;;;;;;;1.60;1.53;;;;;;;;;;5071235;28;20437;-74
2022/05/15 01:47:58;;;;;;;2.97;1.87;;;;;;;;;;5068573;28;20441;-73
2022/05/15 01:50:24;;;;;;;5.80;1.97;;;;;;;;;;5070587;28;20515;-74
2022/05/15 01:52:50;;;;;;;1.53;1.53;;;;;;;;;;5064822;28;20524;-75
2022/05/15 01:55:16;;;;;;;5.07;2.13;;;;;;;;;;5069424;28;20433;-73
2022/05/15 01:57:42;;;;;;;1.50;1.50;;;;;;;;;;5069167;28;20445;-74
2022/05/15 02:00:11;;;;;;;1.80;1.80;;;;;;;;;;5066818;28;20464;-75
2022/05/15 02:02:37;;;;;;;2.00;1.90;;;;;;;;;;5069076;28;20454;-73
2022/05/15 02:05:03;;;;;;;2.50;2.20;;;;;;;;;;5065971;28;20964;-75
2022/05/15 02:07:29;;;;;;;1.67;1.57;;;;;;;;;;5064724;28;20479;-72
2022/05/15 02:09:55;;;;;;;3.90;1.60;;;;;;;;;;5064995;28;20520;-75
2022/05/15 02:12:21;;;;;;;2.13;1.97;;;;;;;;;;5069215;28;20495;-73
2022/05/15 02:14:47;;;;;;;1.60;1.60;;;;;;;;;;5070028;28;20421;-75
2022/05/15 02:17:13;;;;;;;5.10;1.93;;;;;;;;;;5062461;28;20442;-73
2022/05/15 02:19:39;;;;;;;2.07;2.03;;;;;;;;;;5069224;28;20495;-74
2022/05/15 02:22:05;;;;;;;1.90;1.80;;;;;;;;;;5070847;28;20449;-74
2022/05/15 02:24:31;;;;;;;1.60;1.50;;;;;;;;;;5068603;28;20433;-73
2022/05/15 02:26:57;;;;;;;7.33;1.90;;;;;;;;;;5066101;28;20517;-74
2022/05/15 02:29:23;;;;;;;3.20;1.87;;;;;;;;;;5068643;28;20917;-73
2022/05/15 02:31:49;;;;;;;2.40;2.30;;;;;;;;;;5068066;28;20473;-73
2022/05/15 02:34:15;;;;;;;3.13;2.53;;;;;;;;;;5066478;28;20491;-75
2022/05/15 02:36:41;;;;;;;2.00;1.70;;;;;;;;;;5067911;28;20433;-75
2022/05/15 02:39:07;;;;;;;2.00;2.00;;;;;;;;;;5063665;28;20425;-74
2022/05/15 02:41:34;;;;;;;1.80;1.80;;;;;;;;;;5068722;28;20972;-73
2022/05/15 02:44:00;;;;;;;1.80;1.80;;;;;;;;;;5068944;28;20430;-74
2022/05/15 02:46:26;;;;;;;1.93;1.83;;;;;;;;;;5068571;28;20435;-73
2022/05/15 02:51:37;;;;;;;2.63;2.53;;;;;;;;;;5069087;28;20472;-73
2022/05/15 02:54:03;;;;;;;1.80;1.70;;;;;;;;;;5066938;28;20442;-74
2022/05/15 02:56:31;;;;;;;4.00;2.63;;;;;;;;;;5066951;28;20456;-73
2022/05/15 02:58:57;;;;;;;1.73;1.70;;;;;;;;;;5067540;28;20436;-74
2022/05/15 03:01:23;;;;;;;2.30;2.10;;;;;;;;;;5068599;28;20434;-75
2022/05/15 03:03:49;;;;;;;1.73;1.73;;;;;;;;;;5065851;28;20860;-74
2022/05/15 03:06:16;;;;;;;1.60;1.50;;;;;;;;;;5066949;28;20499;-75
2022/05/15 03:08:44;;;;;;;1.90;1.90;;;;;;;;;;5067678;28;20635;-74
2022/05/15 03:11:10;;;;;;;1.77;1.77;;;;;;;;;;5069363;28;20437;-73
2022/05/15 03:13:36;;;;;;;2.50;2.30;;;;;;;;;;5067156;28;20442;-75
2022/05/15 03:16:03;;;;;;;3.17;2.67;;;;;;;;;;5068794;28;20558;-72
2022/05/15 03:18:28;;;;;;;3.10;2.90;;;;;;;;;;5067383;28;20508;-72
2022/05/15 03:20:54;;;;;;;2.67;2.47;;;;;;;;;;5068129;28;20938;-73
2022/05/15 03:23:20;;;;;;;2.70;2.60;;;;;;;;;;5068559;28;20448;-74
2022/05/15 03:25:46;;;;;;;9.00;3.67;;;;;;;;;;5065809;28;20800;-75
2022/05/15 03:28:12;;;;;;;4.27;3.47;;;;;;;;;;5066652;28;20430;-74
2022/05/15 03:30:39;;;;;;;4.77;4.37;;;;;;;;;;5066256;28;20434;-72
2022/05/15 03:33:05;;;;;;;4.13;3.40;;;;;;;;;;5065516;28;20489;-72
2022/05/15 03:35:32;;;;;;;5.27;2.40;;;;;;;;;;5066434;28;20961;-75
2022/05/15 03:37:58;;;;;;;2.40;2.20;;;;;;;;;;5067148;28;20436;-73
2022/05/15 03:40:24;;;;;;;2.33;2.23;;;;;;;;;;5068764;28;20435;-74
2022/05/15 03:42:50;;;;;;;7.23;2.93;;;;;;;;;;5067948;28;20445;-74
2022/05/15 03:45:16;;;;;;;3.30;2.87;;;;;;;;;;5067918;28;20436;-72
2022/05/15 03:47:50;;;;;;;2.53;2.33;;;;;;;;;;5066153;28;20449;-74
2022/05/15 03:50:17;;;;;;;2.83;2.23;;;;;;;;;;5068604;28;20504;-73
2022/05/15 03:52:43;;;;;;;9.57;1.90;;;;;;;;;;5064753;28;20853;-72
2022/05/15 03:55:09;;;;;;;6.10;2.37;;;;;;;;;;5067133;28;20438;-75
2022/05/15 03:57:35;;;;;;;4.10;2.03;;;;;;;;;;5065746;28;20440;-74
2022/05/15 04:00:01;;;;;;;1.70;1.70;;;;;;;;;;5063529;28;20517;-73
2022/05/15 04:02:27;;;;;;;1.43;1.43;;;;;;;;;;5064332;28;20549;-73
2022/05/15 04:04:53;;;;;;;2.27;2.17;;;;;;;;;;5062442;28;20430;-73
2022/05/15 04:07:19;;;;;;;1.93;1.83;;;;;;;;;;5064280;28;20952;-74
2022/05/15 04:09:45;;;;;;;3.73;2.20;;;;;;;;;;5062912;28;20787;-73
2022/05/15 04:12:12;;;;;;;2.60;2.50;;;;;;;;;;5064467;28;20509;-74
2022/05/15 04:14:41;;;;;;;4.33;2.23;;;;;;;;;;5068410;28;20434;-73
2022/05/15 04:17:07;;;;;;;2.87;2.67;;;;;;;;;;5063805;28;20933;-73
2022/05/15 04:19:34;;;;;;;3.43;2.23;;;;;;;;;;5064832;28;20427;-74
2022/05/15 04:22:04;;;;;;;3.37;2.83;;;;;;;;;;5067268;28;20469;-74
2022/05/15 04:24:31;;;;;;;2.27;2.20;;;;;;;;;;5061509;28;20429;-74
2022/05/15 04:26:57;;;;;;;2.50;2.50;;;;;;;;;;5063622;28;20421;-72
2022/05/15 04:29:24;;;;;;;2.03;2.03;;;;;;;;;;5065253;28;20773;-74
2022/05/15 04:31:55;;;;;;;2.47;2.33;;;;;;;;;;5065825;28;20876;-73
2022/05/15 04:34:21;;;;;;;2.90;2.50;;;;;;;;;;5062489;28;20512;-74
2022/05/15 04:36:48;;;;;;;3.27;2.53;;;;;;;;;;5065179;28;20457;-76
2022/05/15 04:39:15;;;;;;;3.13;2.40;;;;;;;;;;5063966;28;20421;-74
2022/05/15 04:41:41;;;;;;;2.50;2.40;;;;;;;;;;5067471;28;20754;-73
2022/05/15 04:44:07;;;;;;;1.80;1.70;;;;;;;;;;5053676;28;20438;-75
2022/05/15 04:46:33;;;;;;;2.17;2.10;;;;;;;;;;5066212;28;20434;-75
2022/05/15 04:48:59;;;;;;;3.23;2.50;;;;;;;;;;5065969;28;21137;-75
2022/05/15 04:51:25;;;;;;;2.30;2.20;;;;;;;;;;5067676;28;20425;-75
2022/05/15 04:53:51;;;;;;;3.20;2.57;;;;;;;;;;5062873;28;20446;-73
2022/05/15 04:56:17;;;;;;;2.43;2.23;;;;;;;;;;5065485;28;20425;-73
2022/05/15 04:58:43;;;;;;;2.60;2.50;;;;;;;;;;5063985;28;20434;-76
2022/05/15 05:01:09;;;;;;;6.10;3.50;;;;;;;;;;5065366;28;20486;-74
2022/05/15 05:03:35;;;;;;;20.13;10.53;;;;;;;;;;5063116;28;20425;-73
2022/05/15 05:06:01;;;;;;;13.73;7.67;;;;;;;;;;5064032;28;20490;-74
2022/05/15 05:08:27;;;;;;;8.40;5.00;;;;;;;;;;5064350;28;20445;-75
2022/05/15 05:10:53;;;;;;;6.10;5.10;;;;;;;;;;5064096;28;20453;-73
2022/05/15 05:13:19;;;;;;;5.00;4.60;;;;;;;;;;5066324;28;20560;-73
2022/05/15 05:15:45;;;;;;;4.00;3.70;;;;;;;;;;5066904;28;20456;-75
2022/05/15 05:18:18;;;;;;;3.57;3.37;;;;;;;;;;5069129;28;20473;-74
2022/05/15 05:20:44;;;;;;;3.57;3.37;;;;;;;;;;5064771;28;21394;-75
2022/05/15 05:23:11;;;;;;;6.27;4.63;;;;;;;;;;5070348;28;20461;-75
2022/05/15 05:25:37;;;;;;;9.97;8.70;;;;;;;;;;5067590;28;20811;-74
2022/05/15 05:28:03;;;;;;;16.27;12.37;;;;;;;;;;5069519;28;20426;-76
2022/05/15 05:30:29;;;;;;;9.53;8.53;;;;;;;;;;5064694;28;20502;-75
2022/05/15 05:32:56;;;;;;;9.17;7.60;;;;;;;;;;5070948;28;20531;-75
2022/05/15 05:35:23;;;;;;;12.97;7.07;;;;;;;;;;5067598;28;20498;-73
2022/05/15 05:37:49;;;;;;;7.23;5.43;;;;;;;;;;5067488;28;21150;-73
2022/05/15 05:40:15;;;;;;;7.80;4.10;;;;;;;;;;5069158;28;20461;-75
2022/05/15 05:42:41;;;;;;;10.47;8.20;;;;;;;;;;5069559;28;20468;-74
2022/05/15 05:45:07;;;;;;;6.30;5.70;;;;;;;;;;5064835;28;20516;-74
2022/05/15 05:47:33;;;;;;;3.73;3.20;;;;;;;;;;5068404;28;20955;-76
2022/05/15 05:49:59;;;;;;;4.37;2.77;;;;;;;;;;5070633;28;20832;-73
2022/05/15 05:52:25;;;;;;;2.47;2.47;;;;;;;;;;5068428;28;20492;-75
2022/05/15 05:54:52;;;;;;;7.60;2.77;;;;;;;;;;5064855;28;20465;-75
2022/05/15 05:57:18;;;;;;;2.60;2.50;;;;;;;;;;5067216;28;20512;-73
2022/05/15 05:59:44;;;;;;;4.73;2.30;;;;;;;;;;5069186;28;20440;-75
2022/05/15 06:02:10;;;;;;;2.60;2.50;;;;;;;;;;5066965;28;20447;-74
2022/05/15 06:04:42;;;;;;;2.80;2.60;;;;;;;;;;5064310;28;20426;-74
2022/05/15 06:07:10;;;;;;;2.20;2.10;;;;;;;;;;5067882;28;20453;-74
2022/05/15 06:09:39;;;;;;;2.37;2.20;;;;;;;;;;5067256;28;20429;-75
2022/05/15 06:12:06;;;;;;;2.30;2.20;;;;;;;;;;5050446;28;20477;-75
2022/05/15 06:14:32;;;;;;;3.63;2.50;;;;;;;;;;5070248;28;20433;-75
2022/05/15 06:16:58;;;;;;;2.00;2.00;;;;;;;;;;5064791;28;20507;-75
2022/05/15 06:19:24;;;;;;;5.40;2.60;;;;;;;;;;5068989;28;20791;-74
2022/05/15 06:21:50;;;;;;;5.53;2.00;;;;;;;;;;5065273;28;20445;-74
2022/05/15 06:24:16;;;;;;;2.90;2.73;;;;;;;;;;5070541;28;20546;-76
2022/05/15 06:26:42;;;;;;;3.33;2.43;;;;;;;;;;5070017;28;20461;-75
2022/05/15 06:29:08;;;;;;;2.93;2.50;;;;;;;;;;5068192;28;20437;-73
2022/05/15 06:31:34;;;;;;;11.20;2.70;;;;;;;;;;5068486;28;20464;-73
2022/05/15 06:34:00;;;;;;;2.53;2.00;;;;;;;;;;5069627;28;20940;-73
2022/05/15 06:36:26;;;;;;;2.93;2.70;;;;;;;;;;5063602;28;20436;-74
2022/05/15 06:38:52;;;;;;;4.10;2.63;;;;;;;;;;5068994;28;20437;-72
2022/05/15 06:41:18;;;;;;;3.90;2.57;;;;;;;;;;5069406;28;20442;-74
2022/05/15 06:43:44;;;;;;;2.33;2.17;;;;;;;;;;5069312;28;20444;-73
2022/05/15 06:46:10;;;;;;;3.50;2.70;;;;;;;;;;5068674;28;20437;-72
2022/05/15 06:48:38;;;;;;;2.47;2.27;;;;;;;;;;5070689;28;20510;-73
2022/05/15 06:51:05;;;;;;;2.30;2.20;;;;;;;;;;5069680;28;20437;-73
2022/05/15 06:53:31;;;;;;;2.93;2.67;;;;;;;;;;5068629;28;20841;-72
2022/05/15 06:58:42;;;;;;;6.40;2.53;;;;;;;;;;5068823;28;20436;-72
2022/05/15 07:01:08;;;;;;;6.90;3.17;;;;;;;;;;5071150;28;20417;-73
2022/05/15 07:03:35;;;;;;;2.53;2.43;;;;;;;;;;5070129;28;20943;-72
2022/05/15 07:06:01;;;;;;;3.83;2.70;;;;;;;;;;5068445;28;20438;-72
2022/05/15 07:08:27;;;;;;;6.07;4.07;;;;;;;;;;5066809;28;20440;-75
2022/05/15 07:10:53;;;;;;;5.50;2.97;;;;;;;;;;5068324;28;20461;-72
2022/05/15 07:13:19;;;;;;;5.47;3.10;;;;;;;;;;5068460;28;20476;-72
2022/05/15 07:15:45;;;;;;;4.03;3.13;;;;;;;;;;5068442;28;20914;-73
2022/05/15 07:18:11;;;;;;;3.77;3.40;;;;;;;;;;5069144;28;20450;-72
2022/05/15 07:20:37;;;;;;;2.60;2.50;;;;;;;;;;5070155;28;20421;-72
2022/05/15 07:23:04;;;;;;;4.87;3.10;;;;;;;;;;5066508;28;20963;-73
2022/05/15 07:25:30;;;;;;;3.23;3.10;;;;;;;;;;5068840;28;20904;-73
2022/05/15 07:27:56;;;;;;;3.37;3.07;;;;;;;;;;5070514;28;20528;-73
2022/05/15 07:30:22;;;;;;;8.03;3.63;;;;;;;;;;5067905;28;20512;-73
2022/05/15 07:32:48;;;;;;;3.30;3.10;;;;;;;;;;5067690;28;20575;-72
2022/05/15 07:35:14;;;;;;;3.30;3.20;;;;;;;;;;5069726;28;20456;-72
2022/05/15 07:37:40;;;;;;;3.77;3.57;;;;;;;;;;5067629;28;20436;-73
2022/05/15 07:40:07;;;;;;;3.70;3.20;;;;;;;;;;5067267;28;20450;-72
2022/05/15 07:42:33;;;;;;;3.00;3.00;;;;;;;;;;5069970;28;20417;-72
2022/05/15 07:44:59;;;;;;;4.10;3.70;;;;;;;;;;5069646;28;20515;-72
2022/05/15 07:47:25;;;;;;;7.30;2.97;;;;;;;;;;5069750;28;20413;-72
2022/05/15 07:49:51;;;;;;;5.77;3.33;;;;;;;;;;5068261;28;20485;-73
2022/05/15 07:52:18;;;;;;;4.20;2.83;;;;;;;;;;5068789;28;20492;-73
2022/05/15 07:54:44;;;;;;;2.90;2.03;;;;;;;;;;5068569;28;20495;-73
2022/05/15 07:57:10;;;;;;;2.47;2.37;;;;;;;;;;5069072;28;20951;-73
2022/05/15 07:59:36;;;;;;;3.87;3.20;;;;;;;;;;5067404;28;20482;-73
2022/05/15 08:02:06;;;;;;;8.10;2.90;;;;;;;;;;5067779;28;20520;-72
2022/05/15 08:08:00;;;;;;;3.30;2.97;;;;;;;;;;5067734;28;20437;-73
2022/05/15 08:10:03;;;;;;;4.23;2.80;;;;;;;;;;5069413;28;21001;-73
2022/05/15 08:12:29;;;;;;;3.30;3.13;;;;;;;;;;5068440;28;21111;-72
2022/05/15 08:14:55;;;;;;;8.83;3.30;;;;;;;;;;5069003;28;20516;-74
2022/05/15 08:17:21;;;;;;;4.77;2.83;;;;;;;;;;5068312;28;20540;-73
2022/05/15 08:25:32;;;;;;;2.87;2.63;;;;;;;;;;5045326;28;20470;-72
2022/05/15 08:27:58;;;;;;;7.03;2.47;;;;;;;;;;5064481;28;21187;-73
2022/05/15 08:30:24;;;;;;;2.33;2.13;;;;;;;;;;5065736;28;20448;-72
2022/05/15 08:32:54;;;;;;;4.83;2.63;;;;;;;;;;5068749;28;20477;-72
2022/05/15 08:35:20;;;;;;;2.87;2.27;;;;;;;;;;5067060;28;20949;-72
2022/05/15 08:37:46;;;;;;;2.47;2.00;;;;;;;;;;5069230;28;20430;-73
2022/05/15 08:40:12;;;;;;;16.40;2.50;;;;;;;;;;5069293;28;20422;-73
2022/05/15 08:42:54;;;;;;;2.40;1.77;;;;;;;;;;5068142;28;20526;-72
2022/05/15 08:45:21;;;;;;;1.90;1.80;;;;;;;;;;5067911;28;20478;-73
2022/05/15 08:47:49;;;;;;;2.17;2.07;;;;;;;;;;5067377;28;20429;-73
2022/05/15 08:50:17;;;;;;;3.80;2.23;;;;;;;;;;5068912;28;20540;-72
2022/05/15 08:52:57;;;;;;;2.47;2.27;;;;;;;;;;5067241;28;20493;-72
2022/05/15 08:55:25;;;;;;;2.03;1.83;;;;;;;;;;5067880;28;20444;-73
2022/05/15 08:58:00;;;;;;;5.57;2.10;;;;;;;;;;5071858;28;20432;-73
2022/05/15 09:00:26;;;;;;;1.93;1.80;;;;;;;;;;5069598;28;20432;-73
2022/05/15 09:02:53;;;;;;;19.83;3.50;;;;;;;;;;5070517;28;21086;-73
2022/05/15 09:05:19;;;;;;;1.80;1.70;;;;;;;;;;5071822;28;20779;-72
2022/05/15 09:07:48;;;;;;;1.60;1.50;;;;;;;;;;5070944;28;20433;-73
2022/05/15 09:10:17;;;;;;;3.90;1.87;;;;;;;;;;5072803;28;20421;-72
2022/05/15 09:12:44;;;;;;;2.00;1.93;;;;;;;;;;5072833;28;20999;-72
2022/05/15 09:15:16;;;;;;;2.23;1.50;;;;;;;;;;5072040;28;20421;-73
2022/05/15 09:17:57;;;;;;;1.97;1.87;;;;;;;;;;5068757;28;20433;-72
2022/05/15 09:20:26;;;;;;;1.80;1.60;;;;;;;;;;5072056;28;21006;-73
2022/05/15 09:23:15;;;;;;;2.17;2.07;;;;;;;;;;5072739;28;20932;-72
2022/05/15 09:25:41;;;;;;;1.67;1.57;;;;;;;;;;5066816;28;21110;-72
2022/05/15 09:28:09;;;;;;;2.37;2.10;;;;;;;;;;5069843;28;20432;-72
2022/05/15 09:30:36;;;;;;;3.90;2.50;;;;;;;;;;5071213;28;20463;-73
2022/05/15 09:33:03;;;;;;;1.63;1.50;;;;;;;;;;5070229;28;20481;-72
2022/05/15 09:35:31;;;;;;;3.20;1.40;;;;;;;;;;5072014;28;20444;-72
2022/05/15 09:43:30;;;;;;;1.93;1.93;;;;;;;;;;5072575;28;20793;-73
2022/05/15 09:43:35;;;;;;;2.17;1.50;;;;;;;;;;5072538;28;20426;-72
2022/05/15 09:46:10;;;;;;;1.90;1.90;;;;;;;;;;5070410;28;20503;-72
2022/05/15 09:48:38;;;;;;;2.50;2.40;;;;;;;;;;5069435;28;20473;-72
2022/05/15 09:51:08;;;;;;;10.13;2.70;;;;;;;;;;5068657;28;20429;-73
2022/05/15 09:53:34;;;;;;;1.83;1.73;;;;;;;;;;5067571;28;20488;-72
2022/05/15 09:56:00;;;;;;;3.03;2.83;;;;;;;;;;5070667;28;20425;-72
2022/05/15 09:58:35;;;;;;;2.90;2.70;;;;;;;;;;5065500;28;20427;-72
2022/05/15 10:01:21;;;;;;;2.30;2.10;;;;;;;;;;5069144;28;20512;-72
2022/05/15 10:03:52;;;;;;;5.53;2.60;;;;;;;;;;5068035;28;20468;-72
2022/05/15 10:06:19;;;;;;;2.60;2.50;;;;;;;;;;5071341;28;20417;-73
2022/05/15 10:08:46;;;;;;;1.37;1.37;;;;;;;;;;5070521;28;20442;-73
2022/05/15 10:11:20;;;;;;;2.30;1.90;;;;;;;;;;5069249;28;20933;-72
2022/05/15 10:13:52;;;;;;;2.53;1.70;;;;;;;;;;5069491;28;20487;-73
2022/05/15 10:16:18;;;;;;;2.40;2.30;;;;;;;;;;5069696;28;21050;-73
2022/05/15 10:18:55;;;;;;;3.57;2.47;;;;;;;;;;5068551;28;20445;-72
2022/05/15 10:21:24;;;;;;;4.70;1.87;;;;;;;;;;5070423;28;20425;-73
2022/05/15 10:23:55;;;;;;;3.60;2.00;;;;;;;;;;5070545;28;20414;-72
2022/05/15 10:26:23;;;;;;;6.30;2.30;;;;;;;;;;5071476;28;20432;-72
2022/05/15 10:28:54;;;;;;;2.20;2.10;;;;;;;;;;5069955;28;20426;-72
2022/05/15 10:31:43;;;;;;;1.80;1.80;;;;;;;;;;5070902;28;20944;-72
2022/05/15 10:34:11;;;;;;;2.53;2.33;;;;;;;;;;5070758;28;20437;-73
2022/05/15 10:36:40;;;;;;;2.40;2.30;;;;;;;;;;5070692;28;20421;-72
2022/05/15 10:39:12;;;;;;;2.23;2.07;;;;;;;;;;5069074;28;20436;-73
2022/05/15 10:41:54;;;;;;;5.30;3.03;;;;;;;;;;5068340;28;20442;-72
2022/05/15 10:44:20;;;;;;;2.30;1.63;;;;;;;;;;5067618;28;20434;-72
2022/05/15 10:46:55;;;;;;;3.80;1.40;;;;;;;;;;5067628;28;20452;-72
2022/05/15 10:49:39;;;;;;;3.43;1.50;;;;;;;;;;5065545;28;20476;-72
2022/05/15 10:52:05;;;;;;;1.70;1.70;;;;;;;;;;5066253;28;20462;-73
2022/05/15 10:58:02;;;;;;;2.53;1.73;;;;;;;;;;5070007;28;20253;-72
2022/05/15 11:00:35;;;;;;;3.43;2.10;;;;;;;;;;5050442;28;20495;-72
2022/05/15 11:03:14;;;;;;;2.00;1.90;;;;;;;;;;5070869;28;20957;-74
2022/05/15 11:05:58;;;;;;;3.57;1.80;;;;;;;;;;5070526;28;20417;-72
2022/05/15 11:08:24;;;;;;;1.73;1.63;;;;;;;;;;5068814;28;20437;-72
2022/05/15 11:10:53;;;;;;;1.80;1.80;;;;;;;;;;5067731;28;20422;-72
2022/05/15 11:13:35;;;;;;;2.00;1.90;;;;;;;;;;5064820;28;20574;-74
2022/05/15 11:16:13;;;;;;;1.80;1.77;;;;;;;;;;5068623;28;20480;-72
2022/05/15 11:18:39;;;;;;;1.20;1.20;;;;;;;;;;5068105;28;20515;-72
2022/05/15 11:21:07;;;;;;;5.33;2.10;;;;;;;;;;5067051;28;20465;-72
2022/05/15 11:23:33;;;;;;;1.83;1.73;;;;;;;;;;5070653;28;20531;-72
2022/05/15 11:26:02;;;;;;;2.00;1.90;;;;;;;;;;5064530;28;20460;-72
2022/05/15 11:28:43;;;;;;;1.40;1.40;;;;;;;;;;5068960;28;20262;-72
2022/05/15 11:31:16;;;;;;;2.30;2.10;;;;;;;;;;5069385;28;20442;-72
2022/05/15 11:34:02;;;;;;;4.57;1.50;;;;;;;;;;5066659;28;20518;-72
2022/05/15 11:36:29;;;;;;;1.97;1.90;;;;;;;;;;5068388;28;20470;-72
2022/05/15 11:39:01;;;;;;;1.70;1.60;;;;;;;;;;5067879;28;20426;-72
2022/05/15 11:41:30;;;;;;;9.70;2.33;;;;;;;;;;5063799;28;20783;-72
2022/05/15 11:43:58;;;;;;;1.93;1.83;;;;;;;;;;5067935;28;20478;-72
2022/05/15 11:46:43;;;;;;;2.20;1.50;;;;;;;;;;5065170;28;20441;-72
2022/05/15 11:49:14;;;;;;;1.90;1.87;;;;;;;;;;5064791;28;20476;-72
2022/05/15 11:51:40;;;;;;;2.37;2.17;;;;;;;;;;5061936;28;21028;-73
2022/05/15 11:54:08;;;;;;;2.77;2.17;;;;;;;;;;5069146;28;20511;-72
2022/05/15 11:56:38;;;;;;;1.70;1.70;;;;;;;;;;5068809;28;20452;-73
2022/05/15 11:59:16;;;;;;;9.47;2.03;;;;;;;;;;5069622;28;20433;-73
2022/05/15 12:01:42;;;;;;;2.27;1.87;;;;;;;;;;5068792;28;20436;-72
2022/05/15 12:04:09;;;;;;;1.83;1.73;;;;;;;;;;5067996;28;20437;-73
2022/05/15 12:06:54;;;;;;;4.50;1.80;;;;;;;;;;5065224;28;20180;-72
2022/05/15 12:09:20;;;;;;;2.00;1.80;;;;;;;;;;5064993;28;20435;-72
2022/05/15 12:11:51;;;;;;;1.70;1.60;;;;;;;;;;5068121;28;20933;-72
2022/05/15 12:14:23;;;;;;;5.17;2.23;;;;;;;;;;5064591;28;20438;-72
2022/05/15 12:16:55;;;;;;;1.43;1.43;;;;;;;;;;5064443;28;20448;-72
2022/05/15 12:19:23;;;;;;;2.00;2.00;;;;;;;;;;5063229;28;20434;-72
2022/05/15 12:21:55;;;;;;;2.00;1.90;;;;;;;;;;5061298;28;20929;-72
2022/05/15 12:24:27;;;;;;;2.37;2.00;;;;;;;;;;5068711;28;20421;-72
2022/05/15 12:26:53;;;;;;;2.43;2.33;;;;;;;;;;5066833;28;20441;-72
2022/05/15 12:29:38;;;;;;;1.80;1.80;;;;;;;;;;5068633;28;20769;-72
2022/05/15 12:32:07;;;;;;;1.77;1.77;;;;;;;;;;5065219;28;20469;-72
2022/05/15 12:34:42;;;;;;;10.50;2.17;;;;;;;;;;5066726;28;20445;-72
2022/05/15 12:37:11;;;;;;;2.53;2.40;;;;;;;;;;5066546;28;20507;-72
2022/05/15 12:39:39;;;;;;;4.00;1.80;;;;;;;;;;5065464;28;20482;-72
2022/05/15 12:42:24;;;;;;;1.80;1.80;;;;;;;;;;5067555;28;20529;-72
2022/05/15 12:45:05;;;;;;;1.90;1.90;;;;;;;;;;5066318;28;20428;-72
2022/05/15 12:47:34;;;;;;;1.70;1.60;;;;;;;;;;5063454;28;20520;-72
2022/05/15 12:50:02;;;;;;;2.00;2.00;;;;;;;;;;5065129;28;20485;-72
2022/05/15 12:52:32;;;;;;;2.17;1.97;;;;;;;;;;5067986;28;20481;-72
2022/05/15 12:55:03;;;;;;;5.40;1.90;;;;;;;;;;5068634;28;20429;-72
2022/05/15 12:57:29;;;;;;;1.50;1.50;;;;;;;;;;5067977;28;20439;-72
2022/05/15 12:59:56;;;;;;;1.70;1.70;;;;;;;;;;5068418;28;20421;-72
2022/05/15 13:02:29;;;;;;;3.30;2.37;;;;;;;;;;5065363;28;20490;-72
2022/05/15 13:04:57;;;;;;;3.07;1.80;;;;;;;;;;5068019;28;20504;-72
2022/05/15 13:07:27;;;;;;;1.97;1.90;;;;;;;;;;5067314;28;20436;-72
2022/05/15 13:10:13;;;;;;;1.33;1.33;;;;;;;;;;5065755;28;20429;-72
2022/05/15 13:12:50;;;;;;;1.40;1.40;;;;;;;;;;5067034;28;20598;-72
2022/05/15 13:15:18;;;;;;;2.27;1.90;;;;;;;;;;5065132;28;20495;-72
2022/05/15 13:17:44;;;;;;;4.10;2.70;;;;;;;;;;5062427;28;20516;-72
2022/05/15 13:20:15;;;;;;;1.60;1.60;;;;;;;;;;5064105;28;20823;-71
2022/05/15 13:22:41;;;;;;;3.03;2.13;;;;;;;;;;5067291;28;21051;-73
2022/05/15 13:25:17;;;;;;;1.60;1.60;;;;;;;;;;5064345;28;20422;-72
2022/05/15 13:27:44;;;;;;;2.20;2.10;;;;;;;;;;5065462;28;20966;-72
2022/05/15 13:30:15;;;;;;;1.70;1.67;;;;;;;;;;5063196;28;20827;-72
2022/05/15 13:32:41;;;;;;;1.93;1.83;;;;;;;;;;5067922;28;20485;-72
2022/05/15 13:35:09;;;;;;;1.93;1.43;;;;;;;;;;5064626;28;20438;-73
2022/05/15 13:37:36;;;;;;;2.50;2.27;;;;;;;;;;5064748;28;20438;-73
2022/05/15 13:45:34;;;;;;;1.60;1.60;;;;;;;;;;5069579;28;20567;-72
2022/05/15 13:48:04;;;;;;;2.77;2.30;;;;;;;;;;5072031;28;20429;-72
2022/05/15 13:50:32;;;;;;;3.00;2.80;;;;;;;;;;5068762;28;20605;-72
2022/05/15 13:53:16;;;;;;;1.90;1.90;;;;;;;;;;5071284;28;20480;-72
2022/05/15 13:55:42;;;;;;;3.17;2.13;;;;;;;;;;5071645;28;20507;-72
2022/05/15 13:58:08;;;;;;;3.40;1.80;;;;;;;;;;5069030;28;20567;-72
2022/05/15 14:00:35;;;;;;;1.97;1.97;;;;;;;;;;5070469;28;20940;-72
2022/05/15 14:03:05;;;;;;;2.50;2.40;;;;;;;;;;5069664;28;20515;-72
2022/05/15 14:05:33;;;;;;;1.93;1.83;;;;;;;;;;5067937;28;20433;-72
2022/05/15 14:08:18;;;;;;;4.50;1.93;;;;;;;;;;5068000;28;21940;-72
2022/05/15 14:10:45;;;;;;;1.80;1.80;;;;;;;;;;5066758;28;20568;-72
2022/05/15 14:13:14;;;;;;;2.53;2.43;;;;;;;;;;5064631;28;20536;-72
2022/05/15 14:15:45;;;;;;;1.80;1.80;;;;;;;;;;5068406;28;20837;-71
2022/05/15 14:18:11;;;;;;;1.80;1.70;;;;;;;;;;5065729;28;20448;-72
2022/05/15 14:20:39;;;;;;;8.40;1.63;;;;;;;;;;5066473;28;20437;-73
2022/05/15 14:23:05;;;;;;;4.43;4.03;;;;;;;;;;5071560;28;20478;-72
2022/05/15 14:25:31;;;;;;;3.20;2.20;;;;;;;;;;5068958;28;20948;-72
2022/05/15 14:27:57;;;;;;;1.73;1.50;;;;;;;;;;5064945;28;20966;-72
2022/05/15 14:30:24;;;;;;;2.87;2.03;;;;;;;;;;5053634;28;20456;-72
2022/05/15 14:33:03;;;;;;;2.00;2.00;;;;;;;;;;5064997;28;20576;-72
2022/05/15 14:35:55;;;;;;;2.03;1.90;;;;;;;;;;5067017;28;20452;-72
2022/05/15 14:38:21;;;;;;;1.90;1.90;;;;;;;;;;5061117;28;20521;-72
2022/05/15 14:40:47;;;;;;;1.70;1.70;;;;;;;;;;5065984;28;20509;-74
2022/05/15 14:43:14;;;;;;;1.90;1.80;;;;;;;;;;5070150;28;20988;-72
2022/05/15 14:45:42;;;;;;;4.00;1.70;;;;;;;;;;5068038;28;20425;-72
2022/05/15 14:48:09;;;;;;;1.93;1.83;;;;;;;;;;5068178;28;20887;-73
2022/05/15 14:50:36;;;;;;;2.73;2.53;;;;;;;;;;5070255;28;20477;-72
2022/05/15 14:53:06;;;;;;;1.80;1.80;;;;;;;;;;5065767;28;20492;-73
2022/05/15 14:58:18;;;;;;;2.40;2.30;;;;;;;;;;5069624;28;20459;-71
2022/05/15 15:00:44;;;;;;;1.83;1.83;;;;;;;;;;5068255;28;20479;-72
2022/05/15 15:03:10;;;;;;;1.50;1.50;;;;;;;;;;5069089;28;20431;-72
2022/05/15 15:05:47;;;;;;;2.20;1.90;;;;;;;;;;5068843;28;20440;-74
2022/05/15 15:08:18;;;;;;;1.83;1.73;;;;;;;;;;5067849;28;20437;-72
2022/05/15 15:10:44;;;;;;;2.10;2.10;;;;;;;;;;5062058;28;20861;-72
2022/05/15 15:13:10;;;;;;;3.03;1.50;;;;;;;;;;5066439;28;21046;-72
2022/05/15 15:15:40;;;;;;;2.53;2.43;;;;;;;;;;5069848;28;20428;-72
2022/05/15 15:18:06;;;;;;;3.10;1.57;;;;;;;;;;5070238;28;20425;-72
2022/05/15 15:20:33;;;;;;;1.93;1.77;;;;;;;;;;5069396;28;20426;-73